Time;durP1;ratioP1;P1;durP2;ratioP2;P2;SDS_P1;SDS_P2;PMS_P1;PMS_P2;Temp;Humidity;BMP_temperature;BMP_pressure;BME280_temperature;BME280_humidity;BME280_pressure;Samples;Min_cycle;Max_cycle;Signal;HPM_P1;HPM_P2
2021/10/04 00:00:09;;;;;;;;;41.00;35.00;;;;;9.07;100.00;99961.91;6319254;20;3595046;-51
2021/10/04 00:02:39;;;;;;;;;35.67;31.67;;;;;9.14;100.00;99974.03;6283910;20;2850395;-50
2021/10/04 00:05:09;;;;;;;;;33.33;29.33;;;;;9.07;100.00;99968.09;6316912;20;3610693;-50
2021/10/04 00:07:39;;;;;;;;;37.33;32.00;;;;;9.22;100.00;99969.16;6284929;20;3603461;-52
2021/10/04 00:10:17;;;;;;;;;35.00;34.00;;;;;9.22;100.00;99966.47;6317975;20;3600232;-51
2021/10/04 00:12:46;;;;;;;;;40.00;37.00;;;;;9.45;100.00;99970.63;6283309;20;2848201;-52
2021/10/04 00:15:20;;;;;;;;;41.67;34.67;;;;;9.10;100.00;99967.94;6289546;20;3601281;-50
2021/10/04 00:17:49;;;;;;;;;37.67;34.67;;;;;9.12;100.00;99971.44;6284983;20;2852480;-48
2021/10/04 00:20:19;;;;;;;;;39.33;32.00;;;;;9.10;100.00;99977.81;6315625;20;3591879;-50
2021/10/04 00:22:49;;;;;;;;;35.00;32.67;;;;;8.84;100.00;99976.44;6285044;20;3590855;-50
2021/10/04 00:25:17;;;;;;;;;41.00;37.00;;;;;9.04;100.00;99972.78;6318434;20;3596051;-51
2021/10/04 00:27:47;;;;;;;;;39.67;34.00;;;;;8.84;100.00;99974.63;6283532;20;2848283;-48
2021/10/04 00:30:20;;;;;;;;;39.00;36.00;;;;;9.38;100.00;99980.81;6320048;20;3600231;-50
2021/10/04 00:32:52;;;;;;;;;44.33;35.67;;;;;8.92;100.00;99984.94;6296678;20;3603385;-49
2021/10/04 00:35:25;;;;;;;;;43.33;35.33;;;;;9.23;100.00;99978.91;6281401;20;2854806;-49
2021/10/04 00:37:55;;;;;;;;;39.00;34.33;;;;;9.07;100.00;99972.59;6314507;20;3609661;-51
2021/10/04 00:40:31;;;;;;;;;36.33;33.67;;;;;9.16;100.00;99975.69;6284373;20;2846148;-48
2021/10/04 00:43:01;;;;;;;;;41.67;34.67;;;;;9.35;100.00;99989.00;6316032;20;3614949;-48
2021/10/04 00:45:33;;;;;;;;;37.75;34.00;;;;;8.95;100.00;99996.41;6307546;20;3587850;-52
2021/10/04 00:48:03;;;;;;;;;40.67;35.33;;;;;8.84;100.00;99993.34;6279171;20;2859708;-50
2021/10/04 00:50:32;;;;;;;;;37.67;35.00;;;;;8.88;100.00;99994.09;6315991;20;3589838;-51
2021/10/04 00:53:02;;;;;;;;;37.00;32.67;;;;;9.31;100.00;99987.41;6282529;20;2855494;-47
2021/10/04 00:55:31;;;;;;;;;32.33;32.33;;;;;9.65;100.00;99991.88;6316218;20;3582645;-48
2021/10/04 00:58:01;;;;;;;;;47.33;37.00;;;;;9.40;100.00;99997.69;6280995;20;3614872;-48
2021/10/04 01:00:30;;;;;;;;;38.67;33.67;;;;;9.28;100.00;99987.56;6315615;20;3597155;-51
2021/10/04 01:03:01;;;;;;;;;32.67;30.33;;;;;8.95;100.00;99996.41;6283489;20;3607571;-50
2021/10/04 01:05:33;;;;;;;;;33.67;30.67;;;;;8.85;100.00;99996.94;6316248;20;3599363;-49
2021/10/04 01:08:04;;;;;;;;;37.33;33.67;;;;;9.08;100.00;99995.75;6283695;20;2863889;-50
2021/10/04 01:10:33;;;;;;;;;38.00;31.67;;;;;8.94;100.00;99993.78;6316006;20;3613121;-47
2021/10/04 01:13:04;;;;;;;;;34.67;30.67;;;;;9.04;100.00;99983.47;6282489;20;3606499;-48
2021/10/04 01:15:33;;;;;;;;;40.00;31.25;;;;;9.07;100.00;99991.34;6316524;20;3634619;-49
2021/10/04 01:18:05;;;;;;;;;33.00;28.00;;;;;8.53;100.00;99994.88;6312428;20;2848174;-49
2021/10/04 01:20:36;;;;;;;;;35.33;29.33;;;;;8.96;100.00;99992.75;6282529;20;3612763;-48
2021/10/04 01:23:05;;;;;;;;;29.00;28.67;;;;;8.83;100.00;99991.63;6313308;20;3595011;-48
2021/10/04 01:25:35;;;;;;;;;34.33;34.00;;;;;8.71;100.00;99994.91;6283296;20;2848310;-51
2021/10/04 01:28:04;;;;;;;;;38.33;32.67;;;;;8.88;100.00;99989.59;6315534;20;3616993;-47
2021/10/04 01:30:34;;;;;;;;;37.33;34.00;;;;;8.59;100.00;99992.84;6282864;20;3585729;-47
2021/10/04 01:33:02;;;;;;;;;34.00;32.00;;;;;8.91;100.00;99994.78;6280982;20;2847157;-50
2021/10/04 01:35:32;;;;;;;;;34.67;29.00;;;;;8.63;100.00;99995.28;6279194;20;3592158;-50
2021/10/04 01:38:02;;;;;;;;;41.00;33.33;;;;;8.67;100.00;99988.84;6312806;20;3619043;-47
2021/10/04 01:40:32;;;;;;;;;40.67;35.33;;;;;8.72;100.00;99988.63;6314545;20;3594025;-48
2021/10/04 01:43:02;;;;;;;;;34.00;32.00;;;;;8.43;100.00;99988.22;6278405;20;2857579;-47
2021/10/04 01:45:31;;;;;;;;;33.67;30.00;;;;;8.31;100.00;99988.78;6317342;20;3590952;-48
2021/10/04 01:48:00;;;;;;;;;35.67;31.67;;;;;8.64;100.00;99983.66;6280618;20;3606500;-47
2021/10/04 01:50:35;;;;;;;;;37.00;33.00;;;;;8.08;100.00;99972.00;6311963;20;2846144;-47
2021/10/04 01:53:08;;;;;;;;;35.00;34.33;;;;;8.17;100.00;99969.84;6313241;20;2860751;-47
2021/10/04 01:55:36;;;;;;;;;38.67;33.00;;;;;8.32;100.00;99971.75;6314827;20;3605442;-51
2021/10/04 01:58:06;;;;;;;;;36.33;31.33;;;;;8.45;100.00;99981.00;6281529;20;3606078;-49
2021/10/04 02:00:35;;;;;;;;;41.67;31.67;;;;;8.23;100.00;99974.91;6285486;20;3614860;-47
2021/10/04 02:03:06;;;;;;;;;36.67;31.67;;;;;8.11;100.00;99976.34;6279936;20;3619091;-47
2021/10/04 02:05:35;;;;;;;;;35.00;31.33;;;;;7.91;100.00;99972.78;6312777;20;3595421;-47
2021/10/04 02:08:05;;;;;;;;;32.33;31.00;;;;;7.88;100.00;99972.06;6278937;20;3592943;-48
2021/10/04 02:10:40;;;;;;;;;35.67;31.00;;;;;8.09;100.00;99981.75;6313773;20;3595016;-47
2021/10/04 02:13:12;;;;;;;;;39.33;34.33;;;;;7.82;100.00;99970.53;6280628;20;3602377;-48
2021/10/04 02:15:42;;;;;;;;;34.33;32.00;;;;;7.83;100.00;99966.06;6310961;20;3593087;-53
2021/10/04 02:18:13;;;;;;;;;43.33;35.67;;;;;8.02;100.00;99974.09;6312394;20;2871180;-51
2021/10/04 02:20:45;;;;;;;;;33.00;31.67;;;;;7.80;100.00;99975.09;6311700;20;3601408;-47
2021/10/04 02:23:16;;;;;;;;;39.00;34.67;;;;;7.76;100.00;99969.94;6310112;20;3584729;-53
2021/10/04 02:25:49;;;;;;;;;46.00;36.00;;;;;7.62;100.00;99963.41;6282859;20;3605526;-48
2021/10/04 02:28:18;;;;;;;;;42.67;36.00;;;;;7.53;100.00;99969.19;6314116;20;3588751;-50
2021/10/04 02:30:51;;;;;;;;;39.67;34.67;;;;;7.52;100.00;99962.09;6282688;20;2855590;-48
2021/10/04 02:33:20;;;;;;;;;51.67;41.00;;;;;7.31;100.00;99958.56;6311964;20;2852456;-47
2021/10/04 02:35:49;;;;;;;;;51.00;42.50;;;;;7.23;100.00;99961.56;6313344;20;2848186;-48
2021/10/04 02:38:19;;;;;;;;;57.00;43.33;;;;;7.35;100.00;99965.53;6285465;20;3619025;-48
2021/10/04 02:40:49;;;;;;;;;59.33;42.33;;;;;7.41;100.00;99959.91;6316628;20;3631504;-48
2021/10/04 02:43:20;;;;;;;;;60.00;43.67;;;;;7.78;100.00;99965.41;6315412;20;3615867;-48
2021/10/04 02:45:51;;;;;;;;;53.33;43.33;;;;;7.46;100.00;99970.38;6316159;20;2877407;-47
2021/10/04 02:48:21;;;;;;;;;48.33;40.00;;;;;7.24;100.00;99974.00;6315049;20;2855602;-47
2021/10/04 02:50:50;;;;;;;;;43.33;37.33;;;;;7.55;100.00;99983.31;6315494;20;3610698;-47
2021/10/04 02:53:19;;;;;;;;;44.33;37.33;;;;;7.32;100.00;99970.09;6291463;20;3605464;-48
2021/10/04 02:55:48;;;;;;;;;47.33;37.33;;;;;7.13;100.00;99970.91;6285472;20;3625228;-47
2021/10/04 02:58:17;;;;;;;;;38.00;32.33;;;;;7.26;100.00;99981.94;6316141;20;3589809;-47
2021/10/04 03:00:47;;;;;;;;;44.67;35.33;;;;;7.39;100.00;99982.28;6283091;20;2862961;-48
2021/10/04 03:03:16;;;;;;;;;42.33;39.00;;;;;7.56;100.00;99979.72;6317303;20;3600336;-50
2021/10/04 03:05:46;;;;;;;;;38.00;36.00;;;;;7.36;100.00;99983.28;6283753;20;2847298;-50
2021/10/04 03:08:15;;;;;;;;;49.67;34.67;;;;;7.08;100.00;99978.25;6315609;20;3620202;-47
2021/10/04 03:10:44;;;;;;;;;48.00;39.67;;;;;7.15;100.00;99979.72;6318161;20;3611695;-50
2021/10/04 03:13:14;;;;;;;;;43.00;38.00;;;;;7.33;100.00;99972.72;6286571;20;2871103;-48
2021/10/04 03:15:43;;;;;;;;;48.00;39.33;;;;;7.32;100.00;99970.09;6317976;20;3606525;-49
2021/10/04 03:18:12;;;;;;;;;51.67;40.00;;;;;7.13;100.00;99973.56;6285375;20;2872219;-50
2021/10/04 03:20:41;;;;;;;;;47.00;38.33;;;;;7.40;100.00;99984.03;6317414;20;3586741;-48
2021/10/04 03:23:10;;;;;;;;;46.00;36.50;;;;;7.55;100.00;99986.00;6282268;20;2870105;-48
2021/10/04 03:25:39;;;;;;;;;43.67;37.67;;;;;7.85;100.00;99996.28;6285172;20;2865994;-46
2021/10/04 03:28:10;;;;;;;;;47.33;39.00;;;;;7.34;100.00;100000.28;6312133;20;2875243;-47
2021/10/04 03:30:39;;;;;;;;;41.33;37.33;;;;;7.61;100.00;100006.22;6318190;20;3605448;-48
2021/10/04 03:33:09;;;;;;;;;40.67;32.33;;;;;7.59;100.00;100006.31;6286714;20;3613810;-46
2021/10/04 03:35:39;;;;;;;;;36.33;34.67;;;;;7.11;100.00;100011.94;6317028;20;3602399;-48
2021/10/04 03:38:08;;;;;;;;;47.67;37.33;;;;;6.92;100.00;100010.06;6283454;20;3614000;-48
2021/10/04 03:40:37;;;;;;;;;45.33;34.33;;;;;6.81;100.00;100007.81;6317541;20;3622114;-50
2021/10/04 03:43:06;;;;;;;;;45.00;34.50;;;;;6.93;100.00;100001.13;6283227;20;2861736;-50
2021/10/04 03:45:35;;;;;;;;;34.33;30.67;;;;;7.03;100.00;100002.50;6283923;20;2854522;-47
2021/10/04 03:48:05;;;;;;;;;38.67;35.33;;;;;7.01;100.00;100001.69;6312697;20;2865066;-49
2021/10/04 03:50:35;;;;;;;;;36.33;30.00;;;;;7.44;100.00;100006.97;6315423;20;3607569;-46
2021/10/04 03:53:04;;;;;;;;;44.33;35.33;;;;;7.02;100.00;100000.72;6318758;20;3607555;-47
2021/10/04 03:55:33;;;;;;;;;35.00;31.67;;;;;6.73;100.00;99993.94;6284433;20;2853478;-47
2021/10/04 03:58:03;;;;;;;;;34.33;31.33;;;;;6.55;100.00;99997.34;6314303;20;2858896;-47
2021/10/04 04:00:33;;;;;;;;;37.33;32.33;;;;;6.82;100.00;99996.25;6316700;20;2857665;-46
2021/10/04 04:03:04;;;;;;;;;39.00;33.67;;;;;7.10;100.00;100000.41;6312992;20;3607732;-49
2021/10/04 04:05:33;;;;;;;;;42.00;36.33;;;;;6.79;100.00;99999.03;6317422;20;3590913;-49
2021/10/04 04:08:05;;;;;;;;;36.33;33.33;;;;;6.71;100.00;100002.94;6280906;20;2852349;-47
2021/10/04 04:10:35;;;;;;;;;42.67;36.00;;;;;7.16;100.00;100007.28;6313048;20;2861800;-46
2021/10/04 04:13:03;;;;;;;;;29.50;28.00;;;;;7.19;100.00;100008.03;6313931;20;2852349;-52
2021/10/04 04:15:35;;;;;;;;;46.25;36.13;;;;;7.01;100.00;100003.47;6314742;20;3613942;-48
2021/10/04 04:18:04;;;;;;;;;42.00;36.50;;;;;6.68;100.00;99992.38;6313945;20;2839965;-48
2021/10/04 04:20:34;;;;;;;;;50.00;41.67;;;;;6.50;100.00;99992.22;6285274;20;3619146;-48
2021/10/04 04:23:03;;;;;;;;;48.33;38.00;;;;;6.46;100.00;99989.72;6314857;20;2859788;-47
2021/10/04 04:25:33;;;;;;;;;44.33;37.67;;;;;6.74;100.00;99995.69;6313357;20;2852687;-47
2021/10/04 04:28:03;;;;;;;;;41.67;36.33;;;;;6.91;100.00;99988.78;6317732;20;3604485;-51
2021/10/04 04:30:33;;;;;;;;;41.67;32.67;;;;;6.82;100.00;99990.91;6282610;20;3626303;-47
2021/10/04 04:33:02;;;;;;;;;29.00;29.00;;;;;6.82;100.00;99988.22;6315456;20;2852355;-52
2021/10/04 04:35:31;;;;;;;;;39.33;35.00;;;;;6.83;100.00;99983.75;6281704;20;2852474;-49
2021/10/04 04:38:00;;;;;;;;;42.00;38.00;;;;;6.99;100.00;99994.66;6315034;20;3596100;-51
2021/10/04 04:40:31;;;;;;;;;38.67;32.67;;;;;7.11;100.00;100004.84;6284006;20;2854435;-48
2021/10/04 04:43:00;;;;;;;;;45.67;36.67;;;;;7.19;100.00;100013.38;6318073;20;3609758;-47
2021/10/04 04:45:29;;;;;;;;;35.33;34.00;;;;;6.71;100.00;100006.47;6285000;20;2863907;-50
2021/10/04 04:47:58;;;;;;;;;42.00;37.33;;;;;6.88;100.00;100003.13;6314153;20;3601289;-49
2021/10/04 04:50:28;;;;;;;;;49.00;37.00;;;;;6.76;100.00;100012.47;6281667;20;3627447;-50
2021/10/04 04:52:58;;;;;;;;;44.33;32.67;;;;;6.70;100.00;100015.41;6316526;20;3611811;-48
2021/10/04 04:55:26;;;;;;;;;39.00;37.00;;;;;6.85;100.00;100018.41;6283522;20;2850264;-48
2021/10/04 04:57:55;;;;;;;;;40.00;37.50;;;;;6.93;100.00;100016.28;6281170;20;2854514;-49
2021/10/04 05:00:24;;;;;;;;;34.50;34.50;;;;;6.79;100.00;100019.50;6283064;20;2833826;-49
2021/10/04 05:02:53;;;;;;;;;35.00;34.00;;;;;6.82;100.00;100009.59;6282413;20;2850326;-48
2021/10/04 05:05:23;;;;;;;;;39.67;34.33;;;;;7.11;100.00;100019.97;6283891;20;3614835;-50
2021/10/04 05:07:52;;;;;;;;;41.00;30.33;;;;;7.35;100.00;100028.75;6317878;20;3629501;-51
2021/10/04 05:10:20;;;;;;;;;34.50;32.50;;;;;7.42;100.00;100035.56;6284158;20;2835737;-48
2021/10/04 05:12:50;;;;;;;;;34.33;30.67;;;;;7.64;100.00;100041.72;6282505;20;3598219;-47
2021/10/04 05:15:19;;;;;;;;;38.00;34.67;;;;;7.17;100.00;100041.94;6316984;20;3594034;-49
2021/10/04 05:17:48;;;;;;;;;46.67;35.33;;;;;7.14;100.00;100042.09;6280622;20;3626294;-49
2021/10/04 05:20:18;;;;;;;;;41.00;34.67;;;;;6.66;100.00;100034.25;6280970;20;2857543;-48
2021/10/04 05:22:46;;;;;;;;;35.33;32.00;;;;;6.54;100.00;100038.31;6316787;20;3590831;-47
2021/10/04 05:25:16;;;;;;;;;40.00;31.33;;;;;6.56;100.00;100031.97;6281971;20;3625259;-47
2021/10/04 05:27:45;;;;;;;;;37.00;30.33;;;;;6.76;100.00;100036.50;6315798;20;3614871;-49
2021/10/04 05:30:13;;;;;;;;;29.50;27.00;;;;;7.01;100.00;100035.50;6279146;20;2500361;-48
2021/10/04 05:32:42;;;;;;;;;37.67;32.33;;;;;7.35;100.00;100034.97;6282802;20;3616925;-46
2021/10/04 05:35:14;;;;;;;;;35.33;34.00;;;;;7.51;100.00;100045.88;6310548;20;3588878;-50
2021/10/04 05:37:44;;;;;;;;;32.67;31.00;;;;;7.28;100.00;100053.97;6279942;20;3595164;-47
2021/10/04 05:40:14;;;;;;;;;32.67;29.33;;;;;7.51;100.00;100045.88;6316503;20;3597164;-49
2021/10/04 05:42:44;;;;;;;;;32.67;32.67;;;;;7.82;100.00;100048.06;6280702;20;3597292;-48
2021/10/04 05:45:16;;;;;;;;;33.67;30.33;;;;;8.10;100.00;100057.50;6314632;20;3589917;-48
2021/10/04 05:47:45;;;;;;;;;31.00;29.00;;;;;8.18;100.00;100057.16;6278842;20;2848727;-50
2021/10/04 05:50:15;;;;;;;;;36.33;30.67;;;;;8.19;100.00;100054.44;6281647;20;2855460;-48
2021/10/04 05:52:44;;;;;;;;;45.33;36.33;;;;;8.14;100.00;100062.66;6316286;20;3609624;-47
2021/10/04 05:55:14;;;;;;;;;35.67;31.00;;;;;8.16;100.00;100067.03;6282982;20;3606515;-52
2021/10/04 05:57:44;;;;;;;;;38.33;35.00;;;;;8.52;100.00;100065.38;6311111;20;3614830;-48
2021/10/04 06:00:15;;;;;;;;;47.75;38.00;;;;;8.98;97.57;100065.88;6314108;20;3621248;-49
2021/10/04 06:02:45;;;;;;;;;34.33;33.00;;;;;8.99;97.67;100070.25;6313629;20;3590887;-49
2021/10/04 06:05:15;;;;;;;;;39.67;35.00;;;;;9.45;95.35;100073.34;6277747;20;3605170;-50
2021/10/04 06:07:46;;;;;;;;;41.88;36.25;;;;;9.48;94.99;100087.50;6334509;20;3612772;-49
2021/10/04 06:10:16;;;;;;;;;35.33;32.67;;;;;9.52;94.89;100089.97;6310988;20;3615874;-52
2021/10/04 06:12:45;;;;;;;;;42.33;35.00;;;;;9.32;96.73;100084.75;6282685;20;3599212;-53
2021/10/04 06:15:15;;;;;;;;;36.33;29.67;;;;;9.91;93.14;100088.88;6281792;20;2859820;-51
2021/10/04 06:17:44;;;;;;;;;30.67;25.00;;;;;10.11;92.16;100096.75;6311983;20;3581518;-49
2021/10/04 06:20:14;;;;;;;;;28.00;25.00;;;;;10.21;90.60;100097.09;6278761;20;2857653;-48
2021/10/04 06:22:43;;;;;;;;;27.33;27.33;;;;;9.84;91.78;100090.13;6283879;20;3582552;-49
2021/10/04 06:25:16;;;;;;;;;31.00;30.00;;;;;10.10;92.34;100107.53;6277708;20;2868087;-49
2021/10/04 06:27:49;;;;;;;;;32.67;27.33;;;;;10.48;90.74;100118.09;6312991;20;3604396;-47
2021/10/04 06:30:18;;;;;;;;;38.67;34.00;;;;;10.62;89.58;100107.44;6314489;20;3582695;-53
2021/10/04 06:32:48;;;;;;;;;37.67;31.00;;;;;10.35;89.12;100117.00;6279235;20;3618981;-53
2021/10/04 06:35:17;;;;;;;;;32.00;31.00;;;;;10.56;88.87;100113.16;6313719;20;3596100;-51
2021/10/04 06:37:46;;;;;;;;;37.00;31.67;;;;;10.98;87.60;100109.91;6284056;20;3592966;-49
2021/10/04 06:40:17;;;;;;;;;33.67;29.00;;;;;11.50;86.80;100126.69;6281782;20;3600268;-49
2021/10/04 06:42:47;;;;;;;;;29.67;27.33;;;;;11.41;86.13;100125.41;6314478;20;3597101;-52
2021/10/04 06:45:16;;;;;;;;;32.00;29.33;;;;;11.39;85.34;100125.47;6275688;20;3604416;-51
2021/10/04 06:47:45;;;;;;;;;25.33;21.33;;;;;12.12;82.89;100119.41;6313997;20;3595047;-48
2021/10/04 06:50:14;;;;;;;;;33.33;30.00;;;;;17.06;62.83;100127.59;6285659;20;3610716;-50
2021/10/04 06:52:43;;;;;;;;;26.67;25.33;;;;;18.19;57.83;100143.50;6281560;20;3589950;-50
2021/10/04 06:55:13;;;;;;;;;31.67;23.67;;;;;19.32;56.01;100138.06;6285351;20;3602353;-48
2021/10/04 06:57:42;;;;;;;;;33.50;29.00;;;;;18.87;55.71;100138.50;6315050;20;3605507;-50
2021/10/04 07:00:20;;;;;;;;;30.33;28.33;;;;;13.45;72.48;100130.75;6317272;20;3600342;-49
2021/10/04 07:02:52;;;;;;;;;28.00;26.00;;;;;12.25;77.22;100130.28;6287596;20;3593990;-51
2021/10/04 07:05:22;;;;;;;;;29.00;25.00;;;;;12.56;78.90;100131.06;6282656;20;2849867;-48
2021/10/04 07:07:55;;;;;;;;;27.67;26.33;;;;;12.60;79.07;100135.31;6314292;20;3593058;-49
2021/10/04 07:10:27;;;;;;;;;35.67;31.33;;;;;12.57;80.45;100138.19;6285444;20;3586716;-49
2021/10/04 07:12:56;;;;;;;;;33.67;28.33;;;;;12.59;76.78;100130.91;6285246;20;3601293;-50
2021/10/04 07:15:25;;;;;;;;;32.00;28.67;;;;;13.07;77.36;100129.59;6285566;20;3582571;-46
2021/10/04 07:17:53;;;;;;;;;32.33;29.00;;;;;13.52;74.88;100135.66;6283546;20;3584644;-48
2021/10/04 07:20:22;;;;;;;;;34.00;32.00;;;;;13.76;73.28;100141.22;6282927;20;3588795;-49
2021/10/04 07:22:51;;;;;;;;;36.00;31.33;;;;;13.86;73.06;100135.22;6292369;20;3594003;-48
2021/10/04 07:25:20;;;;;;;;;35.00;31.00;;;;;13.23;73.93;100140.22;6289493;20;3604437;-49
2021/10/04 07:27:48;;;;;;;;;27.33;26.33;;;;;13.91;73.75;100146.56;6292442;20;3596078;-51
2021/10/04 07:30:17;;;;;;;;;30.33;29.33;;;;;13.70;72.95;100133.56;6290832;20;3606467;-48
2021/10/04 07:32:47;;;;;;;;;34.00;31.00;;;;;13.71;73.06;100140.66;6291736;20;3600240;-49
2021/10/04 07:35:16;;;;;;;;;33.00;24.00;;;;;14.04;72.21;100144.75;6290480;20;3592919;-49
2021/10/04 07:37:45;;;;;;;;;23.00;23.00;;;;;13.82;72.11;100132.72;6291471;20;3582547;-50
2021/10/04 07:40:15;;;;;;;;;30.33;28.67;;;;;14.08;72.02;100138.16;6288663;20;3591916;-51
2021/10/04 07:42:44;;;;;;;;;29.00;26.33;;;;;13.94;71.47;100143.66;6290888;20;3600740;-49
2021/10/04 07:45:13;;;;;;;;;32.33;28.00;;;;;14.20;71.74;100136.47;6291014;20;3607661;-50
2021/10/04 07:47:43;;;;;;;;;33.75;30.00;;;;;14.16;71.68;100141.19;6289482;20;3608804;-49
2021/10/04 07:50:16;;;;;;;;;33.67;31.33;;;;;14.43;69.75;100137.56;6319824;20;3589837;-50
2021/10/04 07:52:46;;;;;;;;;35.67;33.00;;;;;14.53;69.97;100143.19;6289073;20;3591948;-51
2021/10/04 07:55:15;;;;;;;;;35.67;29.33;;;;;14.65;70.88;100137.78;6291239;20;3595061;-51
2021/10/04 07:57:48;;;;;;;;;27.00;27.00;;;;;14.89;68.24;100139.72;6290369;20;3594110;-49
2021/10/04 08:00:20;;;;;;;;;31.33;29.67;;;;;14.70;68.95;100145.56;6289226;20;3573268;-49
2021/10/04 08:02:49;;;;;;;;;27.00;27.00;;;;;15.20;69.14;100142.91;6288953;20;3597152;-50
2021/10/04 08:05:18;;;;;;;;;36.00;30.67;;;;;15.28;69.04;100145.91;6291039;20;3591875;-48
2021/10/04 08:07:46;;;;;;;;;34.67;29.67;;;;;15.21;67.61;100147.31;6291001;20;3598360;-50
2021/10/04 08:10:16;;;;;;;;;29.67;27.00;;;;;14.70;68.77;100145.56;6290294;20;3583700;-51
2021/10/04 08:12:44;;;;;;;;;34.67;28.00;;;;;15.51;68.14;100145.06;6288091;20;3605481;-53
2021/10/04 08:15:14;;;;;;;;;37.00;32.00;;;;;15.36;66.24;100144.34;6285615;20;3394021;-51
2021/10/04 08:17:42;;;;;;;;;27.33;25.67;;;;;15.30;66.43;100135.84;6319333;20;3599298;-52
2021/10/04 08:20:11;;;;;;;;;32.33;29.67;;;;;15.74;67.81;100134.34;6287982;20;3578374;-49
2021/10/04 08:22:41;;;;;;;;;35.00;30.00;;;;;16.11;67.48;100142.34;6287890;20;3579485;-51
2021/10/04 08:25:12;;;;;;;;;33.00;28.33;;;;;15.83;66.61;100135.50;6288555;20;3608669;-53
2021/10/04 08:27:42;;;;;;;;;26.00;25.00;;;;;15.75;66.65;100136.09;6288586;20;3596108;-52
2021/10/04 08:30:12;;;;;;;;;36.33;29.00;;;;;15.82;65.53;100131.91;6293944;20;3596651;-49
2021/10/04 08:32:42;;;;;;;;;28.00;28.00;;;;;16.33;65.94;100128.88;6283842;20;3576261;-50
2021/10/04 08:35:11;;;;;;;;;30.67;29.33;;;;;16.30;65.17;100129.13;6290528;20;3576347;-51
2021/10/04 08:37:40;;;;;;;;;32.00;30.00;;;;;16.38;65.02;100121.25;6289257;20;3580487;-52
2021/10/04 08:40:15;;;;;;;;;29.33;28.67;;;;;16.17;64.89;100123.78;6289416;20;3599731;-50
2021/10/04 08:42:46;;;;;;;;;32.33;30.67;;;;;16.32;63.72;100129.00;6290701;20;3584626;-49
2021/10/04 08:45:14;;;;;;;;;29.67;29.67;;;;;16.43;64.68;100121.75;6289276;20;3588805;-51
2021/10/04 08:47:43;;;;;;;;;33.00;29.00;;;;;16.68;63.92;100117.94;6287275;20;3571189;-52
2021/10/04 08:50:16;;;;;;;;;32.00;28.00;;;;;16.64;64.45;100124.59;6288622;20;3597224;-52
2021/10/04 08:52:45;;;;;;;;;32.50;28.50;;;;;17.11;64.33;100116.34;6290126;20;3607595;-51
2021/10/04 08:55:14;;;;;;;;;34.00;31.00;;;;;16.91;62.28;100117.13;6320033;20;3601398;-51
2021/10/04 08:57:43;;;;;;;;;32.00;31.00;;;;;16.99;62.54;100126.34;6287136;20;3572147;-51
2021/10/04 09:00:12;;;;;;;;;29.67;26.67;;;;;16.96;61.47;100120.31;6289131;20;3595002;-50
2021/10/04 09:02:41;;;;;;;;;29.33;26.33;;;;;17.21;61.97;100120.03;6289855;20;3606581;-52
2021/10/04 09:05:23;;;;;;;;;25.67;25.00;;;;;17.23;61.95;100128.06;6287030;20;3596055;-52
2021/10/04 09:08:07;;;;;;;;;28.00;25.33;;;;;17.32;62.03;100127.28;6286222;20;3602391;-48
2021/10/04 09:10:41;;;;;;;;;29.67;27.33;;;;;17.43;61.93;100115.53;6321194;20;3592973;-50
2021/10/04 09:13:16;;;;;;;;;28.00;26.00;;;;;17.37;60.13;100116.91;6289297;20;3604405;-50
2021/10/04 09:15:50;;;;;;;;;28.00;27.00;;;;;17.60;61.19;100123.13;6285572;20;3601377;-48
2021/10/04 09:18:30;;;;;;;;;22.67;20.33;;;;;17.92;60.25;100122.28;6283435;20;3566044;-48
2021/10/04 09:21:05;;;;;;;;;24.33;24.00;;;;;18.41;60.26;100116.19;6282131;20;3608568;-48
2021/10/04 09:23:52;;;;;;;;;27.67;25.33;;;;;18.20;59.01;100113.50;6319396;20;3574263;-49
2021/10/04 09:26:29;;;;;;;;;29.33;26.00;;;;;18.17;59.33;100113.75;6283540;20;3598145;-49
2021/10/04 09:29:11;;;;;;;;;27.33;22.67;;;;;18.23;59.39;100111.50;6318294;20;3596049;-51
2021/10/04 09:31:44;;;;;;;;;28.33;24.67;;;;;18.47;59.45;100109.34;6288924;20;3599165;-47
2021/10/04 09:34:26;;;;;;;;;30.33;27.00;;;;;18.54;58.21;100115.13;6283807;20;3610059;-47
2021/10/04 09:36:59;;;;;;;;;22.67;21.67;;;;;18.63;59.48;100114.31;6286408;20;2852645;-49
2021/10/04 09:39:36;;;;;;;;;27.00;24.00;;;;;18.72;57.99;100108.06;6319322;20;3585617;-51
2021/10/04 09:42:13;;;;;;;;;29.33;27.00;;;;;18.71;58.45;100100.03;6287331;20;3596123;-47
2021/10/04 09:44:55;;;;;;;;;28.00;25.33;;;;;18.98;58.14;100097.56;6287829;20;3620416;-46
2021/10/04 09:47:34;;;;;;;;;24.00;21.67;;;;;19.10;56.50;100098.34;6286009;20;3591974;-46
2021/10/04 09:50:29;;;;;;;;;24.00;23.67;;;;;19.33;56.82;100096.25;6284991;20;3587838;-46
2021/10/04 09:53:02;;;;;;;;;33.00;29.00;;;;;19.47;55.39;100094.97;6288480;20;3571058;-46
2021/10/04 09:55:45;;;;;;;;;24.00;24.00;;;;;20.03;57.29;100091.53;6288161;20;3596040;-46
2021/10/04 09:58:30;;;;;;;;;22.67;20.67;;;;;19.69;55.35;100096.59;6287837;20;3580576;-46
2021/10/04 10:01:04;;;;;;;;;24.33;21.33;;;;;19.81;56.52;100095.44;6288556;20;3574174;-45
2021/10/04 10:03:39;;;;;;;;;26.67;24.00;;;;;19.92;56.10;100098.00;6288728;20;3602346;-46
2021/10/04 10:06:08;;;;;;;;;25.00;23.67;;;;;20.15;56.24;100093.13;6287978;20;3587808;-47
2021/10/04 10:08:37;;;;;;;;;26.33;22.67;;;;;20.29;56.25;100099.97;6284731;20;3589844;-51
2021/10/04 10:11:07;;;;;;;;;26.67;24.67;;;;;19.84;55.11;100089.72;6286502;20;3597136;-51
2021/10/04 10:13:36;;;;;;;;;20.00;19.00;;;;;20.19;56.13;100088.22;6287991;20;3579425;-48
2021/10/04 10:16:23;;;;;;;;;27.00;21.00;;;;;20.16;54.34;100091.25;6287420;20;3585732;-48
2021/10/04 10:19:14;;;;;;;;;26.00;25.33;;;;;20.44;54.23;100089.47;6284898;20;3591898;-49
2021/10/04 10:21:44;;;;;;;;;24.00;20.33;;;;;20.17;54.33;100084.81;6286187;20;3574186;-48
2021/10/04 10:24:13;;;;;;;;;23.33;23.33;;;;;20.80;54.74;100076.88;6286556;20;3582508;-51
2021/10/04 10:26:58;;;;;;;;;21.33;21.33;;;;;20.57;54.90;100086.44;6285179;20;3587753;-50
2021/10/04 10:29:30;;;;;;;;;27.00;22.67;;;;;20.44;54.23;100081.28;6286032;20;3588790;-48
2021/10/04 10:31:58;;;;;;;;;21.00;20.00;;;;;20.52;54.38;100083.28;6287906;20;3579401;-53
2021/10/04 10:34:36;;;;;;;;;21.33;21.00;;;;;20.81;53.28;100077.72;6286056;20;3571086;-49
2021/10/04 10:37:24;;;;;;;;;22.67;19.33;;;;;20.93;54.32;100076.53;6287905;20;3572198;-50
2021/10/04 10:40:15;;;;;;;;;22.33;21.00;;;;;20.78;54.21;100067.97;6286207;20;3583576;-49
2021/10/04 10:43:14;;;;;;;;;26.00;20.67;;;;;20.80;53.26;100065.97;6280981;20;3591917;-49
2021/10/04 10:45:50;;;;;;;;;24.33;22.00;;;;;21.36;53.08;100065.91;6316797;20;3578333;-47
2021/10/04 10:48:19;;;;;;;;;22.33;20.00;;;;;21.36;52.91;100072.22;6280214;20;3572154;-52
2021/10/04 10:50:49;;;;;;;;;32.67;29.33;;;;;21.24;52.53;100074.31;6282376;20;3606502;-47
2021/10/04 10:53:29;;;;;;;;;42.86;36.43;;;;;21.17;51.93;100070.50;6301078;20;3601394;-49
2021/10/04 10:56:06;;;;;;;;;115.67;94.89;;;;;21.19;53.47;100062.97;6282747;20;3700231;-48
2021/10/04 10:58:37;;;;;;;;;45.25;36.75;;;;;21.09;52.41;100067.69;6290607;20;3605462;-49
2021/10/04 11:01:15;;;;;;;;;72.33;55.00;;;;;21.29;53.68;100059.34;6324254;20;3647221;-51
2021/10/04 11:03:56;;;;;;;;;33.00;30.00;;;;;21.24;52.86;100057.06;6319489;20;3596083;-50
2021/10/04 11:06:44;;;;;;;;;79.75;59.50;;;;;21.33;52.02;100055.28;6321768;20;4419021;-49
2021/10/04 11:09:13;;;;;;;;;36.67;27.67;;;;;21.53;52.18;100056.03;6318390;20;1908653;-51
2021/10/04 11:11:42;;;;;;;;;21.00;21.00;;;;;21.39;51.32;100051.97;6321924;20;3565921;-50
2021/10/04 11:14:16;;;;;;;;;23.33;21.33;;;;;21.45;52.31;100037.69;6291489;20;3587843;-51